createdAt,value
2023-05-20T00:01:54.805Z,15.80
2023-05-20T00:04:21.667Z,15.80
2023-05-20T00:06:48.443Z,15.80
2023-05-20T00:09:15.979Z,15.80
2023-05-20T00:11:42.874Z,15.80
2023-05-20T00:14:09.574Z,15.80
2023-05-20T00:16:36.793Z,15.80
2023-05-20T00:19:03.770Z,15.90
2023-05-20T00:21:31.163Z,15.90
2023-05-20T00:23:58.242Z,15.90
2023-05-20T00:26:25.116Z,15.90
2023-05-20T00:28:51.821Z,16.00
2023-05-20T00:31:18.566Z,15.90
2023-05-20T00:33:45.326Z,15.90
2023-05-20T00:36:12.076Z,15.90
2023-05-20T00:38:38.823Z,15.90
2023-05-20T00:41:05.543Z,15.90
2023-05-20T00:43:32.268Z,15.90
2023-05-20T00:45:59.018Z,15.80
2023-05-20T00:48:25.815Z,15.80
2023-05-20T00:50:52.617Z,15.80
2023-05-20T00:53:19.459Z,15.80
2023-05-20T00:55:46.129Z,15.70
2023-05-20T00:58:12.901Z,15.70
2023-05-20T01:00:39.633Z,15.60
2023-05-20T01:03:06.492Z,15.60
2023-05-20T01:05:33.629Z,15.60
2023-05-20T01:08:00.607Z,15.60
2023-05-20T01:10:27.295Z,15.60
2023-05-20T01:12:54.475Z,15.60
2023-05-20T01:15:21.471Z,15.60
2023-05-20T01:17:48.685Z,15.60
2023-05-20T01:20:15.417Z,15.60
2023-05-20T01:22:48.544Z,15.60
2023-05-20T01:25:15.334Z,15.60
2023-05-20T01:27:42.132Z,15.60
2023-05-20T01:30:09.121Z,15.60
2023-05-20T01:32:37.424Z,15.60
2023-05-20T01:35:04.729Z,15.60
2023-05-20T01:37:31.627Z,15.60
2023-05-20T01:39:58.331Z,15.50
2023-05-20T01:42:26.170Z,15.50
2023-05-20T01:44:52.916Z,15.50
2023-05-20T01:47:19.684Z,15.50
2023-05-20T01:49:47.753Z,15.50
2023-05-20T01:52:14.450Z,15.50
2023-05-20T01:54:41.238Z,15.50
2023-05-20T01:57:07.965Z,15.50
2023-05-20T01:59:34.685Z,15.50
2023-05-20T02:02:01.695Z,15.40
2023-05-20T02:04:28.496Z,15.40
2023-05-20T02:06:55.827Z,15.50
2023-05-20T02:09:22.537Z,15.50
2023-05-20T02:11:49.292Z,15.60
2023-05-20T02:14:16.239Z,15.60
2023-05-20T02:16:42.988Z,15.60
2023-05-20T02:19:12.924Z,15.70
2023-05-20T02:21:40.685Z,15.70
2023-05-20T02:24:07.817Z,15.70
2023-05-20T02:26:34.822Z,15.70
2023-05-20T02:29:01.714Z,15.60
2023-05-20T02:31:28.445Z,15.60
2023-05-20T02:33:55.185Z,15.50
2023-05-20T02:36:21.985Z,15.50
2023-05-20T02:38:48.808Z,15.50
2023-05-20T02:41:15.672Z,15.50
2023-05-20T02:43:44.686Z,15.40
2023-05-20T02:46:11.391Z,15.40
2023-05-20T02:48:38.241Z,15.40
2023-05-20T02:51:05.440Z,15.50
2023-05-20T02:53:32.202Z,15.50
2023-05-20T02:55:59.746Z,15.50
2023-05-20T02:58:27.813Z,15.50
2023-05-20T03:00:54.633Z,15.50
2023-05-20T03:03:21.823Z,15.50
2023-05-20T03:05:50.214Z,15.50
2023-05-20T03:08:16.901Z,15.60
2023-05-20T03:10:43.593Z,15.60
2023-05-20T03:13:11.631Z,15.60
2023-05-20T03:15:38.940Z,15.50
2023-05-20T03:18:06.125Z,15.50
2023-05-20T03:20:32.900Z,15.50
2023-05-20T03:22:59.675Z,15.50
2023-05-20T03:25:26.392Z,15.50
2023-05-20T03:27:53.195Z,15.50
2023-05-20T03:30:20.018Z,15.60
2023-05-20T03:32:46.784Z,15.60
2023-05-20T03:35:13.650Z,15.60
2023-05-20T03:37:40.478Z,15.60
2023-05-20T03:40:07.935Z,15.70
2023-05-20T03:42:34.882Z,15.70
2023-05-20T03:45:01.644Z,15.70
2023-05-20T03:47:28.415Z,15.70
2023-05-20T03:49:55.379Z,15.70
2023-05-20T03:52:22.152Z,15.70
2023-05-20T03:54:48.920Z,15.70
2023-05-20T03:57:15.917Z,15.70
2023-05-20T03:59:42.648Z,15.80
2023-05-20T04:02:09.713Z,15.90
2023-05-20T04:04:36.612Z,15.90
2023-05-20T04:07:04.971Z,15.90
2023-05-20T04:09:32.116Z,15.80
2023-05-20T04:11:58.934Z,15.70
2023-05-20T04:14:25.665Z,15.80
2023-05-20T04:16:52.655Z,15.80
2023-05-20T04:19:19.714Z,15.90
2023-05-20T04:21:46.462Z,15.90
2023-05-20T04:24:13.212Z,15.90
2023-05-20T04:26:39.928Z,15.90
2023-05-20T04:29:06.652Z,15.80
2023-05-20T04:31:33.471Z,15.80
2023-05-20T04:34:00.620Z,15.70
2023-05-20T04:36:30.393Z,15.70
2023-05-20T04:38:57.310Z,15.70
2023-05-20T04:41:27.391Z,15.80
2023-05-20T04:43:54.194Z,15.80
2023-05-20T04:46:21.147Z,15.90
2023-05-20T04:48:48.181Z,15.90
2023-05-20T04:51:15.087Z,16.00
2023-05-20T04:53:43.207Z,16.10
2023-05-20T04:56:11.190Z,16.20
2023-05-20T04:58:38.081Z,16.30
2023-05-20T05:01:04.963Z,16.30
2023-05-20T05:03:31.736Z,16.30
2023-05-20T05:05:58.570Z,16.40
2023-05-20T05:08:26.410Z,16.40
2023-05-20T05:10:53.186Z,16.50
2023-05-20T05:13:19.985Z,16.50
2023-05-20T05:15:46.768Z,16.50
2023-05-20T05:18:13.525Z,16.60
2023-05-20T05:20:40.265Z,16.60
2023-05-20T05:23:07.191Z,16.70
2023-05-20T05:25:34.026Z,16.80
2023-05-20T05:28:00.917Z,16.80
2023-05-20T05:30:28.271Z,16.90
2023-05-20T05:32:55.105Z,17.00
2023-05-20T05:35:21.892Z,17.00
2023-05-20T05:37:48.714Z,17.00
2023-05-20T05:40:15.457Z,17.00
2023-05-20T05:42:42.219Z,17.10
2023-05-20T05:45:09.260Z,17.20
2023-05-20T05:47:36.547Z,17.20
2023-05-20T05:50:03.554Z,17.20
2023-05-20T05:52:30.451Z,17.20
2023-05-20T05:54:57.408Z,17.30
2023-05-20T05:57:24.318Z,17.30
2023-05-20T05:59:51.203Z,17.30
2023-05-20T06:02:18.138Z,17.30
2023-05-20T06:04:45.002Z,17.30
2023-05-20T06:07:11.905Z,17.30
2023-05-20T06:09:39.151Z,17.30
2023-05-20T06:12:06.156Z,17.20
2023-05-20T06:14:33.133Z,17.30
2023-05-20T06:17:00.375Z,17.30
2023-05-20T06:19:27.267Z,17.30
2023-05-20T06:21:54.086Z,17.30
2023-05-20T06:24:22.406Z,17.30
2023-05-20T06:26:51.213Z,17.30
2023-05-20T06:29:18.066Z,17.30
2023-05-20T06:31:44.945Z,17.30
2023-05-20T06:34:11.911Z,17.30
2023-05-20T06:36:38.776Z,17.30
2023-05-20T06:39:11.371Z,17.30
2023-05-20T06:41:39.838Z,17.20
2023-05-20T06:44:07.391Z,17.10
2023-05-20T06:46:34.596Z,17.30
2023-05-20T06:49:01.422Z,17.30
2023-05-20T06:51:28.606Z,17.40
2023-05-20T06:53:55.498Z,17.60
2023-05-20T06:56:22.331Z,17.70
2023-05-20T06:58:49.156Z,17.80
2023-05-20T07:01:17.911Z,17.90
2023-05-20T07:03:45.392Z,18.10
2023-05-20T07:06:12.347Z,18.20
2023-05-20T07:08:39.322Z,18.30
2023-05-20T07:11:06.359Z,18.40
2023-05-20T07:13:33.172Z,18.40
2023-05-20T07:16:00.047Z,18.50
2023-05-20T07:18:26.851Z,18.60
2023-05-20T07:20:53.815Z,18.80
2023-05-20T07:23:20.983Z,18.80
2023-05-20T07:25:47.849Z,18.90
2023-05-20T07:28:16.174Z,18.90
2023-05-20T07:30:43.293Z,18.90
2023-05-20T07:33:10.146Z,18.90
2023-05-20T07:35:37.231Z,18.90
2023-05-20T07:38:04.159Z,18.70
2023-05-20T07:40:31.044Z,18.60
2023-05-20T07:42:57.853Z,18.50
2023-05-20T07:45:24.657Z,18.40
2023-05-20T07:47:51.589Z,18.40
2023-05-20T07:50:18.415Z,18.40
2023-05-20T07:52:55.849Z,18.40
2023-05-20T07:55:23.813Z,18.40
2023-05-20T07:57:50.749Z,18.40
2023-05-20T08:00:17.770Z,18.50
2023-05-20T08:02:44.748Z,18.50
2023-05-20T08:05:11.702Z,18.60
2023-05-20T08:07:38.577Z,18.70
2023-05-20T08:10:05.974Z,18.80
2023-05-20T08:12:33.466Z,18.90
2023-05-20T08:15:00.370Z,19.10
2023-05-20T08:17:27.252Z,19.30
2023-05-20T08:19:54.115Z,19.60
2023-05-20T08:22:20.969Z,19.60
2023-05-20T08:24:47.878Z,19.50
2023-05-20T08:27:14.814Z,19.20
2023-05-20T08:29:41.593Z,19.20
2023-05-20T08:32:08.519Z,19.50
2023-05-20T08:34:35.352Z,19.70
2023-05-20T08:37:02.277Z,19.70
2023-05-20T08:39:29.098Z,19.80
2023-05-20T08:41:55.898Z,20.00
2023-05-20T08:44:22.795Z,20.10
2023-05-20T08:46:49.791Z,20.40
2023-05-20T08:49:17.173Z,20.70
2023-05-20T08:51:44.054Z,20.80
2023-05-20T08:54:12.014Z,20.80
2023-05-20T08:56:39.415Z,20.80
2023-05-20T08:59:06.680Z,20.60
2023-05-20T09:01:33.733Z,20.30
2023-05-20T09:04:00.552Z,20.20
2023-05-20T09:06:27.345Z,20.00
2023-05-20T09:08:54.243Z,19.70
2023-05-20T09:11:23.112Z,19.60
2023-05-20T09:13:50.760Z,19.70
2023-05-20T09:16:17.611Z,19.80
2023-05-20T09:18:44.919Z,20.00
2023-05-20T09:21:11.828Z,20.10
2023-05-20T09:23:38.841Z,20.10
2023-05-20T09:26:05.778Z,20.10
2023-05-20T09:28:32.692Z,20.00
2023-05-20T09:31:00.021Z,20.00
2023-05-20T09:33:30.437Z,20.00
2023-05-20T09:36:09.920Z,20.10
2023-05-20T09:38:40.217Z,20.50
2023-05-20T09:41:08.850Z,21.10
2023-05-20T09:43:37.303Z,21.60
2023-05-20T09:46:04.762Z,22.10
2023-05-20T09:48:34.068Z,22.50
2023-05-20T09:51:01.149Z,23.00
2023-05-20T09:53:28.512Z,23.70
2023-05-20T09:55:55.859Z,24.10
2023-05-20T09:58:25.570Z,24.10
2023-05-20T10:00:54.072Z,23.80
2023-05-20T10:03:24.994Z,23.70
2023-05-20T10:06:07.482Z,23.60
2023-05-20T10:08:43.353Z,23.40
2023-05-20T10:11:13.221Z,23.30
2023-05-20T10:13:43.035Z,23.50
2023-05-20T10:16:40.669Z,23.60
2023-05-20T10:19:07.517Z,23.50
2023-05-20T10:21:34.366Z,23.60
2023-05-20T10:24:08.340Z,23.70
2023-05-20T10:26:39.135Z,23.90
2023-05-20T10:29:18.734Z,24.00
2023-05-20T10:31:48.622Z,24.20
2023-05-20T10:34:19.598Z,24.40
2023-05-20T10:37:07.050Z,24.90
2023-05-20T10:39:34.678Z,25.20
2023-05-20T10:42:08.515Z,25.70
2023-05-20T10:44:45.601Z,25.80
2023-05-20T10:49:46.494Z,25.80
2023-05-20T10:52:22.483Z,25.50
2023-05-20T10:54:59.003Z,25.40
2023-05-20T10:57:29.352Z,25.20
2023-05-20T10:59:56.156Z,25.00
2023-05-20T11:02:26.962Z,25.10
2023-05-20T11:04:56.049Z,24.70
2023-05-20T11:07:29.635Z,24.40
2023-05-20T11:09:59.489Z,24.10
2023-05-20T11:12:27.226Z,23.60
2023-05-20T11:14:54.370Z,23.40
2023-05-20T11:17:21.324Z,23.30
2023-05-20T11:19:48.483Z,22.90
2023-05-20T11:22:15.339Z,22.80
2023-05-20T11:24:42.153Z,22.70
2023-05-20T11:27:09.405Z,22.80
2023-05-20T11:29:36.304Z,22.70
2023-05-20T11:32:07.647Z,22.80
2023-05-20T11:34:35.450Z,22.90
2023-05-20T11:37:02.639Z,22.90
2023-05-20T11:39:32.589Z,23.10
2023-05-20T11:42:11.095Z,23.30
2023-05-20T11:44:38.515Z,23.60
2023-05-20T11:47:05.512Z,23.80
2023-05-20T11:49:39.193Z,24.00
2023-05-20T11:52:08.082Z,24.20
2023-05-20T11:54:36.329Z,24.30
2023-05-20T11:57:05.111Z,24.30
2023-05-20T11:59:33.218Z,24.40
2023-05-20T12:02:00.040Z,24.60
2023-05-20T12:04:27.096Z,24.80
2023-05-20T12:06:54.115Z,25.00
2023-05-20T12:09:21.017Z,25.10
2023-05-20T12:11:47.940Z,25.30
2023-05-20T12:14:14.794Z,25.40
2023-05-20T12:16:41.696Z,25.40
2023-05-20T12:19:09.536Z,25.30
2023-05-20T12:21:36.632Z,25.30
2023-05-20T12:24:05.910Z,25.30
2023-05-20T12:26:33.239Z,25.30
2023-05-20T12:29:00.517Z,24.80
2023-05-20T12:31:27.465Z,24.40
2023-05-20T12:33:54.501Z,24.40
2023-05-20T12:36:21.383Z,24.60
2023-05-20T12:38:48.303Z,24.80
2023-05-20T12:41:15.243Z,24.80
2023-05-20T12:43:42.182Z,24.70
2023-05-20T12:46:09.182Z,24.40
2023-05-20T12:48:37.032Z,24.20
2023-05-20T12:51:04.130Z,24.20
2023-05-20T12:53:30.968Z,24.10
2023-05-20T12:55:57.824Z,24.00
2023-05-20T12:58:24.811Z,23.80
2023-05-20T13:00:51.779Z,23.70
2023-05-20T13:03:18.959Z,23.90
2023-05-20T13:05:45.939Z,24.10
2023-05-20T13:08:14.810Z,24.20
2023-05-20T13:10:41.796Z,24.30
2023-05-20T13:13:08.721Z,24.40
2023-05-20T13:15:36.087Z,24.50
2023-05-20T13:18:05.931Z,24.60
2023-05-20T13:20:32.994Z,24.60
2023-05-20T13:22:59.916Z,24.50
2023-05-20T13:25:27.899Z,24.40
2023-05-20T13:27:54.819Z,24.30
2023-05-20T13:30:21.676Z,24.10
2023-05-20T13:32:48.565Z,24.00
2023-05-20T13:35:16.870Z,24.00
2023-05-20T13:37:43.757Z,24.10
2023-05-20T13:40:11.218Z,24.10
2023-05-20T13:42:38.060Z,24.10
2023-05-20T13:45:05.270Z,24.10
2023-05-20T13:47:32.475Z,24.00
2023-05-20T13:50:00.697Z,24.10
2023-05-20T13:52:29.675Z,24.20
2023-05-20T13:54:56.570Z,24.30
2023-05-20T13:57:23.552Z,24.40
2023-05-20T13:59:50.474Z,24.40
2023-05-20T14:02:17.487Z,24.50
2023-05-20T14:04:46.875Z,24.80
2023-05-20T14:07:13.875Z,24.90
2023-05-20T14:09:40.871Z,25.10
2023-05-20T14:12:07.951Z,25.20
2023-05-20T14:14:34.973Z,25.20
2023-05-20T14:17:01.889Z,25.20
2023-05-20T14:19:29.244Z,25.40
2023-05-20T14:21:56.339Z,25.70
2023-05-20T14:24:23.918Z,25.80
2023-05-20T14:26:50.889Z,25.90
2023-05-20T14:29:17.841Z,25.80
2023-05-20T14:31:44.984Z,25.90
2023-05-20T14:34:11.994Z,25.90
2023-05-20T14:36:39.279Z,26.00
2023-05-20T14:39:06.131Z,26.10
2023-05-20T14:41:33.001Z,26.20
2023-05-20T14:43:59.840Z,26.40
2023-05-20T14:46:26.881Z,26.40
2023-05-20T14:48:53.857Z,26.20
2023-05-20T14:51:20.754Z,26.10
2023-05-20T14:53:47.608Z,26.00
2023-05-20T14:56:14.473Z,26.00
2023-05-20T14:58:41.350Z,25.90
2023-05-20T15:01:08.409Z,25.70
2023-05-20T15:03:35.463Z,25.70
2023-05-20T15:06:02.400Z,25.60
2023-05-20T15:08:29.281Z,25.40
2023-05-20T15:10:56.643Z,25.30
2023-05-20T15:13:23.572Z,25.20
2023-05-20T15:15:50.527Z,25.20
2023-05-20T15:18:17.393Z,25.10
2023-05-20T15:20:44.526Z,25.10
2023-05-20T15:23:12.287Z,25.10
2023-05-20T15:25:39.209Z,25.00
2023-05-20T15:28:06.169Z,25.10
2023-05-20T15:30:33.167Z,25.10
2023-05-20T15:33:00.427Z,25.10
2023-05-20T15:35:27.352Z,25.10
2023-05-20T15:37:54.627Z,25.00
2023-05-20T15:40:21.828Z,25.10
2023-05-20T15:42:48.686Z,25.20
2023-05-20T15:45:16.236Z,25.20
2023-05-20T15:47:43.250Z,25.20
2023-05-20T15:50:11.393Z,25.20
2023-05-20T15:52:38.666Z,25.10
2023-05-20T15:55:06.186Z,25.00
2023-05-20T15:57:33.048Z,24.90
2023-05-20T16:00:00.091Z,24.80
2023-05-20T16:02:27.143Z,24.80
2023-05-20T16:04:54.148Z,24.70
2023-05-20T16:07:20.996Z,24.70
2023-05-20T16:09:47.830Z,24.70
2023-05-20T16:12:16.607Z,24.60
2023-05-20T16:14:44.731Z,24.50
2023-05-20T16:17:11.937Z,24.40
2023-05-20T16:19:38.876Z,24.40
2023-05-20T16:22:05.740Z,24.30
2023-05-20T16:24:32.597Z,24.20
2023-05-20T16:26:59.426Z,24.20
2023-05-20T16:29:26.250Z,24.20
2023-05-20T16:31:53.224Z,24.10
2023-05-20T16:34:20.273Z,24.10
2023-05-20T16:36:47.186Z,24.00
2023-05-20T16:39:14.919Z,24.00
2023-05-20T16:41:42.245Z,24.00
2023-05-20T16:44:09.436Z,23.90
2023-05-20T16:46:36.366Z,23.90
2023-05-20T16:49:03.183Z,23.80
2023-05-20T16:51:30.013Z,23.80
2023-05-20T16:53:56.885Z,23.70
2023-05-20T16:56:23.705Z,23.70
2023-05-20T16:58:52.955Z,23.60
2023-05-20T17:01:21.250Z,23.50
2023-05-20T17:03:48.261Z,23.50
2023-05-20T17:06:15.127Z,23.40
2023-05-20T17:08:41.938Z,23.40
2023-05-20T17:11:08.810Z,23.30
2023-05-20T17:13:35.805Z,23.20
2023-05-20T17:16:02.725Z,23.10
2023-05-20T17:18:29.646Z,23.00
2023-05-20T17:20:56.540Z,23.00
2023-05-20T17:23:23.462Z,22.90
2023-05-20T17:25:50.432Z,22.90
2023-05-20T17:28:17.352Z,22.80
2023-05-20T17:30:44.245Z,22.70
2023-05-20T17:33:11.415Z,22.60
2023-05-20T17:35:38.453Z,22.60
2023-05-20T17:38:05.585Z,22.50
2023-05-20T17:40:32.535Z,22.30
2023-05-20T17:42:59.376Z,22.10
2023-05-20T17:45:26.199Z,22.00
2023-05-20T17:47:53.063Z,21.80
2023-05-20T17:50:19.983Z,21.60
2023-05-20T17:52:46.815Z,21.40
2023-05-20T17:55:14.559Z,21.30
2023-05-20T17:57:41.707Z,21.20
2023-05-20T18:00:09.412Z,21.10
2023-05-20T18:02:38.393Z,21.00
2023-05-20T18:05:06.524Z,20.90
2023-05-20T18:07:34.585Z,20.70
2023-05-20T18:10:01.586Z,20.60
2023-05-20T18:12:28.478Z,20.50
2023-05-20T18:14:55.400Z,20.40
2023-05-20T18:17:22.351Z,20.30
2023-05-20T18:19:49.283Z,20.30
2023-05-20T18:22:16.207Z,20.20
2023-05-20T18:24:43.110Z,20.10
2023-05-20T18:27:10.044Z,20.00
2023-05-20T18:29:36.863Z,19.90
2023-05-20T18:32:03.988Z,19.80
2023-05-20T18:34:33.158Z,19.80
2023-05-20T18:37:00.288Z,19.70
2023-05-20T18:39:27.114Z,19.70
2023-05-20T18:41:53.966Z,19.60
2023-05-20T18:44:21.023Z,19.50
2023-05-20T18:46:47.942Z,19.40
2023-05-20T18:49:14.852Z,19.40
2023-05-20T18:51:41.917Z,19.30
2023-05-20T18:54:08.772Z,19.20
2023-05-20T18:56:35.724Z,19.20
2023-05-20T18:59:02.571Z,19.10
2023-05-20T19:01:29.638Z,19.00
2023-05-20T19:03:56.622Z,18.90
2023-05-20T19:06:23.490Z,18.90
2023-05-20T19:08:50.690Z,18.80
2023-05-20T19:11:17.714Z,18.70
2023-05-20T19:13:44.631Z,18.70
2023-05-20T19:16:11.632Z,18.60
2023-05-20T19:18:38.676Z,18.60
2023-05-20T19:21:05.503Z,18.50
2023-05-20T19:23:32.595Z,18.60
2023-05-20T19:25:59.580Z,18.50
2023-05-20T19:28:26.675Z,18.50
2023-05-20T19:30:53.870Z,18.40
2023-05-20T19:33:20.964Z,18.40
2023-05-20T19:35:47.916Z,18.30
2023-05-20T19:38:14.868Z,18.30
2023-05-20T19:40:41.666Z,18.20
2023-05-20T19:43:08.450Z,18.20
2023-05-20T19:45:36.736Z,18.10
2023-05-20T19:48:04.232Z,18.10
2023-05-20T19:50:31.664Z,18.00
2023-05-20T19:52:58.704Z,18.00
2023-05-20T19:55:25.618Z,17.90
2023-05-20T19:57:53.589Z,17.90
2023-05-20T20:00:21.511Z,17.80
2023-05-20T20:02:48.843Z,17.80
2023-05-20T20:05:16.004Z,17.80
2023-05-20T20:07:42.873Z,17.80
2023-05-20T20:10:10.501Z,17.80
2023-05-20T20:12:37.362Z,17.70
2023-05-20T20:15:04.777Z,17.70
2023-05-20T20:17:33.889Z,17.70
2023-05-20T20:20:00.932Z,17.60
2023-05-20T20:22:27.884Z,17.60
2023-05-20T20:24:54.930Z,17.60
2023-05-20T20:27:23.769Z,17.50
2023-05-20T20:29:51.338Z,17.40
2023-05-20T20:32:18.484Z,17.40
2023-05-20T20:34:46.230Z,17.30
2023-05-20T20:37:15.102Z,17.30
2023-05-20T20:39:42.893Z,17.30
2023-05-20T20:42:09.872Z,17.20
2023-05-20T20:44:36.762Z,17.10
2023-05-20T20:47:04.586Z,17.10
2023-05-20T20:49:32.224Z,17.00
2023-05-20T20:51:59.234Z,17.00
2023-05-20T20:54:26.509Z,16.90
2023-05-20T20:56:56.594Z,16.90
2023-05-20T20:59:26.575Z,16.90
2023-05-20T21:01:54.048Z,16.90
2023-05-20T21:04:21.089Z,16.90
2023-05-20T21:06:48.042Z,16.90
2023-05-20T21:09:15.197Z,16.80
2023-05-20T21:11:42.263Z,16.80
2023-05-20T21:14:09.596Z,16.80
2023-05-20T21:16:36.488Z,16.70
2023-05-20T21:19:03.464Z,16.70
2023-05-20T21:21:31.037Z,16.60
2023-05-20T21:23:57.915Z,16.60
2023-05-20T21:26:25.775Z,16.60
2023-05-20T21:28:52.861Z,16.50
2023-05-20T21:31:20.038Z,16.50
2023-05-20T21:33:46.921Z,16.50
2023-05-20T21:36:13.826Z,16.50
2023-05-20T21:38:40.828Z,16.40
2023-05-20T21:41:08.016Z,16.30
2023-05-20T21:43:36.081Z,16.30
2023-05-20T21:46:03.156Z,16.20
2023-05-20T21:48:30.120Z,16.20
2023-05-20T21:50:57.035Z,16.20
2023-05-20T21:53:23.837Z,16.20
2023-05-20T21:55:50.916Z,16.10
2023-05-20T21:58:17.767Z,16.10
2023-05-20T22:00:45.102Z,16.10
2023-05-20T22:03:12.980Z,16.10
2023-05-20T22:05:40.963Z,16.00
2023-05-20T22:08:07.910Z,16.00
2023-05-20T22:10:36.559Z,16.00
2023-05-20T22:13:03.483Z,15.90
2023-05-20T22:15:31.286Z,15.90
2023-05-20T22:17:58.553Z,15.80
2023-05-20T22:20:25.620Z,15.80
2023-05-20T22:22:52.593Z,15.80
2023-05-20T22:25:19.569Z,15.80
2023-05-20T22:27:47.225Z,15.70
2023-05-20T22:30:14.149Z,15.60
2023-05-20T22:32:41.385Z,15.50
2023-05-20T22:35:09.086Z,15.50
2023-05-20T22:37:35.978Z,15.30
2023-05-20T22:40:03.857Z,15.40
2023-05-20T22:42:30.754Z,15.40
2023-05-20T22:44:57.592Z,15.40
2023-05-20T22:47:24.571Z,15.40
2023-05-20T22:49:51.370Z,15.40
2023-05-20T22:52:18.761Z,15.40
2023-05-20T22:54:45.636Z,15.40
2023-05-20T22:57:12.753Z,15.30
2023-05-20T22:59:40.436Z,15.20
2023-05-20T23:02:07.926Z,15.20
2023-05-20T23:04:34.930Z,15.10
2023-05-20T23:07:01.853Z,15.00
2023-05-20T23:09:28.690Z,15.00
2023-05-20T23:11:55.556Z,14.90
2023-05-20T23:14:22.820Z,14.90
2023-05-20T23:16:49.776Z,14.90
2023-05-20T23:19:16.905Z,15.00
2023-05-20T23:21:44.114Z,15.00
2023-05-20T23:24:11.960Z,15.00
2023-05-20T23:26:39.658Z,15.00
2023-05-20T23:29:06.600Z,15.00
2023-05-20T23:31:33.830Z,14.90
2023-05-20T23:34:03.883Z,14.90
2023-05-20T23:36:35.102Z,14.80
2023-05-20T23:39:02.473Z,14.70
2023-05-20T23:41:29.293Z,14.70
2023-05-20T23:43:56.153Z,14.70
2023-05-20T23:46:23.083Z,14.70
2023-05-20T23:48:50.349Z,14.70
2023-05-20T23:51:17.273Z,14.70
2023-05-20T23:53:44.514Z,14.60
2023-05-20T23:56:11.482Z,14.60
2023-05-20T23:58:38.478Z,14.60
